Nearby METAR Reports

 

KSJC - San Jose, California, USA
Distance from station: NE 9mi, 14km
Updated: Thu, 09-Apr-2020 7:53pm CDT
Mostly cloudy
Mostly cloudy
 Wind from calm
Wind: Calm
Temperature: 63°F , 17°C
Dew Point: 48°F , 9°C
Humidity: 59%
Barometer: 29.99 inHg , 1015.6 hPa
Clouds: Mostly cloudy
Visibility: 10 miles , 16 km
Cloud details: Few Clouds 1000 ft
Mostly cloudy 3200 ft
Mostly cloudy 4300 ft
2020/04/10 00:53 KSJC 100053Z 00000KT 10SM FEW010 BKN032TCU BKN043 17/09 A2999 RMK AO2 SLP155 TCU N TCU DSNT N-SE T01670089
KNUQ - Moffett Nas/Mtn, California, USA
Distance from station: N 9mi, 14km
Updated: Thu, 21-Nov-2019 10:56am CST
NOT Current

 
Barometer: 29.86 inHg , 1011.2 hPa
2019/11/21 16:56 KNUQ 211656Z AUTO A2986 RMK AO2 SLP116 PWINO $
 
KPAO - Palo Alto, California, USA
Distance from station: NNW 14mi, 23km
Updated: Thu, 09-Apr-2020 8:47pm CDT
Mostly cloudy
Mostly cloudy
 Wind from NW
Wind: NW 7 mph , 11 km/h
Temperature: 61°F , 16°C
Dew Point: 50°F , 10°C
Humidity: 68%
Barometer: 30.01 inHg , 1016.3 hPa
Clouds: Mostly cloudy
Visibility: 10 miles , 16 km
Cloud details: Mostly cloudy 5000 ft
Mostly cloudy 20000 ft
2020/04/10 01:47 KPAO 100147Z 32006KT 10SM BKN050 BKN200 16/10 A3001
KRHV - San Jose/Reid, California, USA
Distance from station: ENE 12mi, 19km
Updated: Thu, 09-Apr-2020 8:47pm CDT
Mostly cloudy
Mostly cloudy
 Wind from SSE
Wind: SSE 7 mph , 11 km/h
Temperature: 61°F , 16°C
Dew Point: 48°F , 9°C
Humidity: 63%
Barometer: 30.01 inHg , 1016.3 hPa
Clouds: Mostly cloudy
Visibility: 10 miles , 16 km
Cloud details: Mostly cloudy 3200 ft
Mostly cloudy 5000 ft
2020/04/10 01:47 KRHV 100147Z 16006KT 10SM BKN032 BKN050 16/09 A3001
 
KOAK - Oakland, California, USA
Distance from station: NNW 31mi, 50km
Updated: Thu, 09-Apr-2020 7:53pm CDT
Mostly cloudy
Mostly cloudy
 Wind from WNW
Wind: WNW 9 mph , 15 km/h
Temperature: 64°F , 18°C
Dew Point: 52°F , 11°C
Humidity: 64%
Barometer: 30.00 inHg , 1015.9 hPa
Clouds: Mostly cloudy
Visibility: 10 miles , 16 km
Cloud details: Few Clouds 2000 ft
Mostly cloudy 4500 ft
Mostly cloudy 18000 ft
2020/04/10 00:53 KOAK 100053Z 30008KT 10SM FEW020 BKN045 BKN180 18/11 A3000 RMK AO2 SLP160 T01780111
KSQL - San Carlos Airpo, California, USA
Distance from station: NW 21mi, 34km
Updated: Thu, 09-Apr-2020 8:47pm CDT
Overcast
Overcast
 Wind from SW
Wind: SW 8 mph , 13 km/h
Temperature: 59°F , 15°C
Dew Point: 50°F , 10°C
Humidity: 72%
Barometer: 30.02 inHg , 1016.6 hPa
Clouds: Overcast
Visibility: 10 miles , 16 km
Cloud details: Mostly cloudy 4100 ft
Overcast 5000 ft
2020/04/10 01:47 KSQL 100147Z 23007KT 10SM BKN041 OVC050 15/10 A3002
 
KSFO - San Francisco, California, USA
Distance from station: NW 30mi, 49km
Updated: Thu, 09-Apr-2020 7:56pm CDT
Mostly cloudy
Mostly cloudy
 Wind from WNW
Wind: WNW 9 mph , 15 km/h
Temperature: 61°F , 16°C
Dew Point: 48°F , 9°C
Humidity: 63%
Barometer: 30.00 inHg , 1015.9 hPa
Clouds: Mostly cloudy
Visibility: 10 miles , 16 km
Cloud details: Few Clouds 1700 ft
Mostly cloudy 3300 ft
Mostly cloudy 15000 ft
2020/04/10 00:56 KSFO 100056Z 29008KT 10SM FEW017 BKN033 BKN150 16/09 A3000 RMK AO2 SLP157 T01610094
KE16 - San Martin, California, USA
Distance from station: ESE 27mi, 43km
Updated: Thu, 14-Nov-2019 3:35am CST
NOT Current
Overcast
Overcast
 Wind from SE
Wind: SE 7 mph , 11 km/h
Temperature: 54°F , 12°C
Dew Point: 50°F , 10°C
Humidity: 88%
Barometer: 30.05 inHg , 1017.6 hPa
Clouds: Overcast
Visibility: 10 miles , 16 km
Cloud details: Overcast 1400 ft
2019/11/14 09:35 KE16 140935Z AUTO 13006KT 10SM OVC014 12/10 A3005 RMK AO2
 
KWVI - Watsonville, California, USA
Distance from station: SSE 27mi, 44km
Updated: Thu, 09-Apr-2020 8:25pm CDT
Mostly cloudy
Mostly cloudy
 Wind from W
Wind: W 7 mph , 11 km/h
Temperature: 55°F , 13°C
Dew Point: 52°F , 11°C
Humidity: 88%
Barometer: 30.02 inHg , 1016.6 hPa
Clouds: Mostly cloudy
Visibility: 10 miles , 16 km
Cloud details: Partly cloudy 2100 ft
Mostly cloudy 3800 ft
Mostly cloudy 5000 ft
2020/04/10 01:25 KWVI 100125Z AUTO 28006KT 10SM SCT021 BKN038 BKN050 13/11 A3002 RMK AO2 T01330106
KHAF - Half Moon Bay, California, USA
Distance from station: WNW 31mi, 50km
Updated: Thu, 09-Apr-2020 8:40pm CDT
Overcast
Overcast
 Wind from S
Wind: S 6 mph , 9 km/h
Temperature: 55°F , 13°C
Dew Point: 50°F , 10°C
Humidity: 82%
Barometer: 30.03 inHg , 1016.9 hPa
Clouds: Overcast
Visibility: 10 miles , 16 km
Cloud details: Overcast 1500 ft
2020/04/10 01:40 KHAF 100140Z AUTO 19005KT 10SM OVC015 13/10 A3003 RMK AO2
 
KHWD - Hayward, California, USA
Distance from station: N 28mi, 44km
Updated: Thu, 09-Apr-2020 7:54pm CDT
Partly cloudy
Partly cloudy
 Wind from NNE
Wind: NNE 7 mph , 11 km/h
Temperature: 63°F , 17°C
Dew Point: 48°F , 9°C
Humidity: 59%
Barometer: 29.99 inHg , 1015.6 hPa
Clouds: Partly cloudy
Visibility: 10 miles , 16 km
Cloud details: Partly cloudy 3500 ft
2020/04/10 00:54 KHWD 100054Z 02006KT 10SM SCT035 17/09 A2999 RMK AO2 SLP165 T01720089
KLVK - Livermore, California, USA
Distance from station: NNE 31mi, 51km
Updated: Thu, 09-Apr-2020 7:53pm CDT
Clear
Clear
 Wind from NNE
Wind: NNE 9 mph , 15 km/h
Temperature: 61°F , 16°C
Dew Point: 46°F , 8°C
Humidity: 59%
Barometer: 29.99 inHg , 1015.6 hPa
Clouds: Clear
Visibility: 10 miles , 16 km
2020/04/10 00:53 KLVK 100053Z 03008KT 10SM CLR 16/08 A2999 RMK AO2 SLP155 T01560083